createdAt,value
2023-02-12T09:12:05.328Z,16.40
2023-02-12T09:27:09.950Z,18.20
2023-02-12T09:42:38.548Z,19.30
2023-02-12T09:57:44.268Z,19.80
2023-02-12T10:12:54.380Z,20.00
2023-02-12T10:28:02.695Z,20.10
2023-02-12T10:43:09.078Z,20.20
2023-02-12T10:58:22.790Z,20.30
2023-02-12T11:13:29.602Z,20.50
2023-02-12T11:28:36.275Z,20.70
2023-02-12T11:43:41.345Z,21.00
2023-02-12T11:58:47.465Z,21.30
2023-02-12T12:13:59.828Z,21.60
2023-02-12T12:29:12.162Z,21.80
2023-02-12T12:44:28.765Z,21.90
2023-02-12T13:00:01.225Z,22.00
2023-02-12T13:15:18.081Z,22.00
2023-02-12T13:30:26.050Z,22.10
2023-02-12T13:45:41.907Z,22.10
2023-02-12T14:01:01.351Z,22.20
2023-02-12T14:31:36.207Z,22.40
2023-02-12T14:46:49.183Z,22.60
2023-02-12T15:01:54.701Z,22.70
2023-02-12T15:17:06.895Z,22.70
2023-02-12T15:32:18.920Z,22.70
2023-02-12T15:47:26.264Z,22.80
2023-02-12T16:02:33.164Z,22.90
2023-02-12T16:17:38.431Z,22.90
2023-02-12T16:32:44.481Z,23.10
2023-02-12T16:47:51.955Z,23.10
2023-02-12T17:02:57.778Z,23.10
2023-02-12T17:18:02.325Z,23.10
2023-02-12T17:33:06.933Z,23.00
2023-02-12T17:48:12.054Z,22.90
2023-02-12T18:03:16.591Z,22.90
2023-02-12T18:18:21.082Z,22.80
2023-02-12T18:33:25.820Z,22.70
2023-02-12T18:48:30.333Z,22.70
2023-02-12T19:03:34.859Z,22.60
2023-02-12T19:18:39.691Z,22.60
2023-02-12T19:33:45.473Z,22.50
2023-02-12T19:48:50.438Z,22.50
2023-02-12T20:03:56.128Z,22.40
2023-02-12T20:19:02.541Z,22.40
2023-02-12T20:34:09.095Z,22.30
2023-02-12T20:49:14.745Z,22.20
